Time;durP1;ratioP1;P1;durP2;ratioP2;P2;SDS_P1;SDS_P2;PMS_P1;PMS_P2;Temp;Humidity;BMP_temperature;BMP_pressure;BME280_temperature;BME280_humidity;BME280_pressure;Samples;Min_cycle;Max_cycle;Signal;HPM_P1;HPM_P2
2023/03/06 00:00:56;;;;;;;5.25;1.40;;;4.40;99.90;;;;;;5089349;28;20489;-69
2023/03/06 00:03:22;;;;;;;7.18;1.85;;;4.40;99.90;;;;;;5107362;28;20425;-69
2023/03/06 00:05:48;;;;;;;7.40;2.33;;;4.40;99.90;;;;;;5101640;28;20031;-68
2023/03/06 00:08:14;;;;;;;6.90;2.17;;;4.40;99.90;;;;;;5097649;28;20117;-68
2023/03/06 00:10:40;;;;;;;13.00;2.83;;;4.40;99.90;;;;;;5092524;28;20020;-69
2023/03/06 00:13:10;;;;;;;14.02;4.70;;;4.30;99.90;;;;;;5107058;28;20032;-68
2023/03/06 00:15:36;;;;;;;9.95;2.90;;;4.30;99.90;;;;;;5099435;28;20122;-68
2023/03/06 00:18:03;;;;;;;14.48;3.63;;;4.30;99.90;;;;;;5110234;28;20033;-69
2023/03/06 00:20:31;;;;;;;10.05;3.38;;;4.20;99.90;;;;;;5096839;28;20036;-70
2023/03/06 00:22:56;;;;;;;10.57;2.60;;;4.20;99.90;;;;;;5107665;28;20020;-70
2023/03/06 00:25:22;;;;;;;18.10;3.90;;;4.20;99.90;;;;;;5093514;28;20483;-69
2023/03/06 00:27:49;;;;;;;6.35;2.13;;;4.20;99.90;;;;;;5105799;28;20092;-67
2023/03/06 00:30:17;;;;;;;8.52;2.55;;;4.10;99.90;;;;;;5111551;28;20044;-68
2023/03/06 00:32:43;;;;;;;7.80;3.58;;;4.10;99.90;;;;;;5080814;28;20060;-68
2023/03/06 00:35:10;;;;;;;12.30;3.40;;;4.10;99.90;;;;;;5105858;28;20074;-68
2023/03/06 00:37:37;;;;;;;8.13;2.28;;;4.10;99.90;;;;;;5105782;28;20027;-69
2023/03/06 00:40:11;;;;;;;11.45;2.83;;;4.00;99.90;;;;;;5098293;28;20024;-69
2023/03/06 00:42:37;;;;;;;4.72;1.60;;;4.00;99.90;;;;;;5081989;28;20428;-68
2023/03/06 00:45:03;;;;;;;9.05;3.47;;;3.90;99.90;;;;;;5098574;28;20122;-68
2023/03/06 00:47:29;;;;;;;8.45;2.92;;;3.90;99.90;;;;;;5103012;28;20115;-70
2023/03/06 00:49:54;;;;;;;5.95;2.30;;;3.90;99.90;;;;;;5108657;28;20467;-69
2023/03/06 00:52:20;;;;;;;18.45;5.10;;;3.80;99.90;;;;;;5096160;28;20073;-69
2023/03/06 00:54:45;;;;;;;10.27;1.77;;;3.80;99.90;;;;;;5098723;28;20028;-68
2023/03/06 00:57:11;;;;;;;6.05;1.35;;;3.80;99.90;;;;;;5104977;28;20044;-70
2023/03/06 00:59:36;;;;;;;11.07;3.75;;;3.80;99.90;;;;;;5105304;28;20040;-69
2023/03/06 01:02:02;;;;;;;8.40;1.75;;;3.70;99.90;;;;;;5108717;28;20023;-69
2023/03/06 01:04:28;;;;;;;6.18;1.27;;;3.70;99.90;;;;;;5096743;28;20407;-68
2023/03/06 01:06:53;;;;;;;5.85;1.70;;;3.70;99.90;;;;;;5107459;28;20035;-69
2023/03/06 01:09:19;;;;;;;5.85;1.77;;;3.80;99.90;;;;;;5103249;28;20042;-69
2023/03/06 01:11:45;;;;;;;2.88;1.17;;;3.70;99.90;;;;;;5100223;28;20111;-68
2023/03/06 01:14:11;;;;;;;10.55;2.40;;;3.70;99.90;;;;;;5110202;28;20427;-69
2023/03/06 01:16:37;;;;;;;6.90;2.63;;;3.80;99.90;;;;;;5097309;28;20395;-69
2023/03/06 01:19:03;;;;;;;5.55;1.65;;;3.80;99.90;;;;;;5099350;28;20032;-68
2023/03/06 01:21:28;;;;;;;5.80;1.23;;;3.80;99.90;;;;;;5103958;28;20061;-68
2023/03/06 01:23:54;;;;;;;7.20;1.67;;;3.90;99.90;;;;;;5098847;28;20036;-68
2023/03/06 01:26:19;;;;;;;7.18;2.10;;;3.90;99.90;;;;;;5109690;28;20209;-68
2023/03/06 01:28:45;;;;;;;10.57;2.25;;;3.90;99.90;;;;;;5097986;28;20056;-69
2023/03/06 01:31:10;;;;;;;7.63;1.55;;;3.90;99.90;;;;;;5104928;28;20550;-69
2023/03/06 01:33:37;;;;;;;8.45;2.00;;;4.00;99.90;;;;;;5105138;28;20391;-68
2023/03/06 01:36:05;;;;;;;10.48;2.40;;;4.00;99.90;;;;;;5093125;28;20058;-68
2023/03/06 01:38:30;;;;;;;12.70;3.55;;;4.10;99.90;;;;;;5074834;28;20033;-69
2023/03/06 01:40:56;;;;;;;3.78;1.13;;;4.10;99.90;;;;;;5072911;28;20034;-69
2023/03/06 01:43:25;;;;;;;6.20;2.33;;;4.20;99.90;;;;;;5073248;28;20456;-68
2023/03/06 01:45:50;;;;;;;5.78;1.63;;;4.30;99.90;;;;;;5075373;28;20180;-68
2023/03/06 01:48:22;;;;;;;6.50;2.17;;;4.40;99.90;;;;;;5073035;28;20117;-67
2023/03/06 01:50:49;;;;;;;7.15;2.35;;;4.40;99.90;;;;;;5072831;28;20035;-68
2023/03/06 01:53:15;;;;;;;6.00;1.60;;;4.60;99.90;;;;;;5072457;28;20036;-68
2023/03/06 01:55:41;;;;;;;3.30;0.90;;;4.60;99.90;;;;;;5072844;28;20029;-67
2023/03/06 01:58:12;;;;;;;3.63;1.38;;;4.60;99.90;;;;;;5073167;28;20067;-68
2023/03/06 02:00:37;;;;;;;9.25;2.15;;;4.70;99.90;;;;;;5072520;28;20017;-67
2023/03/06 02:03:08;;;;;;;8.10;2.45;;;4.60;99.90;;;;;;5072426;28;20357;-67
2023/03/06 02:05:34;;;;;;;2.28;1.00;;;4.60;99.90;;;;;;5072686;28;20033;-67
2023/03/06 02:08:01;;;;;;;6.30;1.58;;;4.70;99.90;;;;;;5073433;28;20040;-68
2023/03/06 02:10:27;;;;;;;1.30;0.75;;;4.70;99.90;;;;;;5089101;28;20061;-67
2023/03/06 02:12:52;;;;;;;9.50;2.60;;;4.70;99.90;;;;;;5112917;28;20063;-67
2023/03/06 02:15:21;;;;;;;5.93;1.80;;;4.70;99.90;;;;;;5113089;28;20023;-67
2023/03/06 02:17:48;;;;;;;10.40;1.90;;;4.70;99.90;;;;;;5112832;28;20073;-67
2023/03/06 02:20:30;;;;;;;3.05;1.30;;;4.70;99.90;;;;;;5088516;28;20059;-68
2023/03/06 02:23:17;;;;;;;6.15;1.48;;;4.70;99.90;;;;;;5104802;28;20028;-68
2023/03/06 02:25:46;;;;;;;3.42;1.48;;;4.70;99.90;;;;;;5091541;28;20198;-68
2023/03/06 02:28:17;;;;;;;8.75;1.52;;;4.70;99.90;;;;;;5092036;28;20090;-68
2023/03/06 02:30:44;;;;;;;3.97;1.05;;;4.70;99.90;;;;;;5098021;28;20027;-67
2023/03/06 02:33:12;;;;;;;4.45;1.45;;;4.70;99.90;;;;;;5099002;28;20073;-69
2023/03/06 02:35:39;;;;;;;8.95;2.53;;;4.80;99.90;;;;;;5098924;28;20028;-68
2023/03/06 02:38:14;;;;;;;5.60;1.60;;;4.80;99.90;;;;;;5098558;28;20031;-68
2023/03/06 02:40:45;;;;;;;8.23;2.03;;;4.90;99.90;;;;;;5057336;28;20730;-68
2023/03/06 02:43:15;;;;;;;9.57;2.53;;;4.90;99.90;;;;;;5058697;28;20033;-67
2023/03/06 02:45:45;;;;;;;4.78;1.95;;;5.00;99.90;;;;;;5058109;28;20319;-68
2023/03/06 02:48:12;;;;;;;5.03;2.17;;;5.00;99.90;;;;;;5057521;28;20144;-68
2023/03/06 02:50:38;;;;;;;9.95;2.63;;;5.00;99.90;;;;;;5058290;28;20021;-68
2023/03/06 02:53:06;;;;;;;11.15;2.05;;;5.00;99.90;;;;;;5057716;28;20486;-69
2023/03/06 02:55:32;;;;;;;7.72;2.10;;;5.00;99.90;;;;;;5040289;28;20365;-68
2023/03/06 02:57:57;;;;;;;4.78;2.30;;;5.00;99.90;;;;;;5058643;28;20025;-68
2023/03/06 03:00:24;;;;;;;9.43;2.05;;;5.00;99.90;;;;;;5058299;28;20028;-67
2023/03/06 03:02:49;;;;;;;8.82;2.70;;;5.00;99.90;;;;;;5058712;28;20053;-67
2023/03/06 03:05:15;;;;;;;10.88;2.00;;;5.00;99.90;;;;;;5058511;28;20057;-68
2023/03/06 03:07:41;;;;;;;6.68;1.90;;;5.00;99.90;;;;;;5058111;28;20543;-68
2023/03/06 03:10:07;;;;;;;8.63;2.10;;;5.10;99.90;;;;;;5059024;28;20423;-67
2023/03/06 03:12:33;;;;;;;8.43;2.35;;;5.10;99.90;;;;;;5058616;28;20025;-68
2023/03/06 03:14:58;;;;;;;8.23;2.15;;;5.10;99.90;;;;;;5058018;28;20029;-67
2023/03/06 03:17:24;;;;;;;4.60;1.75;;;5.10;99.90;;;;;;5058334;28;20040;-68
2023/03/06 03:19:50;;;;;;;3.20;1.00;;;5.20;99.90;;;;;;5057487;28;20041;-69
2023/03/06 03:22:16;;;;;;;2.20;0.50;;;5.20;99.90;;;;;;5058000;28;20033;-68
2023/03/06 03:24:42;;;;;;;3.15;1.00;;;5.20;99.90;;;;;;5057155;28;20037;-69
2023/03/06 03:27:08;;;;;;;6.45;2.47;;;5.20;99.90;;;;;;5057734;28;20029;-69
2023/03/06 03:29:34;;;;;;;7.95;1.33;;;5.10;99.90;;;;;;5057717;28;20064;-68
2023/03/06 03:31:59;;;;;;;3.97;1.40;;;5.10;99.90;;;;;;5058414;28;20457;-68
2023/03/06 03:34:25;;;;;;;6.47;1.60;;;5.10;99.90;;;;;;5057815;28;20036;-69
2023/03/06 03:36:50;;;;;;;5.40;1.63;;;5.00;99.90;;;;;;5056395;28;20090;-68
2023/03/06 03:39:16;;;;;;;6.03;1.80;;;5.00;99.90;;;;;;5057576;28;20033;-68
2023/03/06 03:41:41;;;;;;;9.40;1.98;;;5.00;99.90;;;;;;5055359;28;20060;-69
2023/03/06 03:44:08;;;;;;;3.00;1.20;;;5.00;99.90;;;;;;5054982;28;20030;-69
2023/03/06 03:46:33;;;;;;;3.22;1.20;;;5.00;99.90;;;;;;5054984;28;20029;-68
2023/03/06 03:48:59;;;;;;;3.90;0.98;;;5.00;99.90;;;;;;5054635;28;20036;-68
2023/03/06 03:51:25;;;;;;;5.57;1.25;;;5.10;99.90;;;;;;5054686;28;20021;-68
2023/03/06 03:53:51;;;;;;;4.70;1.20;;;5.10;99.90;;;;;;5054026;28;20036;-69
2023/03/06 03:56:16;;;;;;;3.42;0.75;;;5.10;99.90;;;;;;5053465;28;20523;-68
2023/03/06 03:58:42;;;;;;;1.27;0.93;;;5.10;99.90;;;;;;5053961;28;20028;-67
2023/03/06 04:01:08;;;;;;;3.58;1.02;;;5.10;99.90;;;;;;5054760;28;20384;-68
2023/03/06 04:03:34;;;;;;;2.10;0.52;;;5.10;99.90;;;;;;5054869;28;20056;-69
2023/03/06 04:06:00;;;;;;;4.22;0.80;;;5.10;99.90;;;;;;5054575;28;20033;-68
2023/03/06 04:08:26;;;;;;;6.75;0.90;;;5.10;99.90;;;;;;5054130;28;20077;-68
2023/03/06 04:10:52;;;;;;;4.32;0.70;;;5.20;99.90;;;;;;5054296;28;20028;-68
2023/03/06 04:13:19;;;;;;;16.08;5.25;;;5.20;99.90;;;;;;5054453;28;20029;-68
2023/03/06 04:15:46;;;;;;;13.32;4.70;;;5.20;99.90;;;;;;5054352;28;20457;-68
2023/03/06 04:18:15;;;;;;;11.07;4.28;;;5.20;99.90;;;;;;5053133;28;20369;-68
2023/03/06 04:20:40;;;;;;;8.10;2.42;;;5.20;99.90;;;;;;5053202;28;20063;-67
2023/03/06 04:23:06;;;;;;;13.20;3.30;;;5.20;99.90;;;;;;5054073;28;20100;-69
2023/03/06 04:25:33;;;;;;;13.40;3.85;;;5.20;99.90;;;;;;5054598;28;20029;-69
2023/03/06 04:27:58;;;;;;;11.75;2.97;;;5.20;99.90;;;;;;5053845;28;20464;-69
2023/03/06 04:30:24;;;;;;;8.45;3.05;;;5.20;99.90;;;;;;5054091;28;20104;-67
2023/03/06 04:32:49;;;;;;;9.95;2.90;;;5.20;99.90;;;;;;5053772;28;20049;-67
2023/03/06 04:35:15;;;;;;;9.32;2.65;;;5.30;99.90;;;;;;5054057;28;20489;-67
2023/03/06 04:37:40;;;;;;;11.98;2.53;;;5.20;99.90;;;;;;5053894;28;20033;-68
2023/03/06 04:40:08;;;;;;;16.88;2.20;;;5.20;99.90;;;;;;5054211;28;20143;-68
2023/03/06 04:42:33;;;;;;;7.60;2.03;;;5.20;99.90;;;;;;5054170;28;20070;-67
2023/03/06 04:44:59;;;;;;;9.98;2.08;;;5.20;99.90;;;;;;5053947;28;20377;-68
2023/03/06 04:47:24;;;;;;;7.15;1.15;;;5.20;99.90;;;;;;5053277;28;20443;-67
2023/03/06 04:49:50;;;;;;;4.32;0.93;;;5.20;99.90;;;;;;5053130;28;20538;-69
2023/03/06 04:52:15;;;;;;;4.17;0.73;;;5.20;99.90;;;;;;5052642;28;20443;-68
2023/03/06 04:54:41;;;;;;;6.97;1.55;;;5.10;99.90;;;;;;5052924;28;20074;-68
2023/03/06 04:57:08;;;;;;;7.63;2.00;;;5.10;99.90;;;;;;5053718;28;20032;-69
2023/03/06 04:59:33;;;;;;;5.68;1.20;;;5.10;99.90;;;;;;5052970;28;20029;-69
2023/03/06 05:01:59;;;;;;;5.22;1.30;;;5.00;99.90;;;;;;5053766;28;20037;-70
2023/03/06 05:04:25;;;;;;;9.05;1.40;;;5.00;99.90;;;;;;5052827;28;20086;-69
2023/03/06 05:06:50;;;;;;;3.17;0.80;;;5.00;99.90;;;;;;5033646;28;20025;-68
2023/03/06 05:09:16;;;;;;;7.25;1.23;;;5.00;99.90;;;;;;5053095;28;20037;-67
2023/03/06 05:11:41;;;;;;;5.60;1.00;;;4.90;99.90;;;;;;5053329;28;20029;-69
2023/03/06 05:14:07;;;;;;;4.63;1.10;;;4.90;99.90;;;;;;5052397;28;20035;-69
2023/03/06 05:16:32;;;;;;;4.00;0.90;;;4.90;99.90;;;;;;5051994;28;20024;-69
2023/03/06 05:18:58;;;;;;;7.18;1.20;;;4.90;99.90;;;;;;5050522;28;20037;-70
2023/03/06 05:21:24;;;;;;;3.20;0.93;;;4.90;99.90;;;;;;5051863;28;20021;-68
2023/03/06 05:23:49;;;;;;;7.28;1.25;;;4.90;99.90;;;;;;5051312;28;20025;-70
2023/03/06 05:26:15;;;;;;;6.28;0.85;;;4.90;99.90;;;;;;5051207;28;20028;-69
2023/03/06 05:28:40;;;;;;;6.60;0.85;;;4.90;99.90;;;;;;5051496;28;20040;-70
2023/03/06 05:31:06;;;;;;;7.63;1.20;;;4.90;99.90;;;;;;5051598;28;20029;-68
2023/03/06 05:33:34;;;;;;;4.55;1.35;;;4.90;99.90;;;;;;5031583;28;20438;-70
2023/03/06 05:36:00;;;;;;;4.93;0.70;;;4.80;99.90;;;;;;5050661;28;20040;-67
2023/03/06 05:38:25;;;;;;;6.38;1.05;;;4.80;99.90;;;;;;5051131;28;20100;-68
2023/03/06 05:40:51;;;;;;;8.63;1.42;;;4.70;99.90;;;;;;5051699;28;20433;-69
2023/03/06 05:43:16;;;;;;;3.47;1.20;;;4.70;99.90;;;;;;5050794;28;20043;-68
2023/03/06 05:45:43;;;;;;;4.32;1.02;;;4.70;99.90;;;;;;5051038;28;20465;-70
2023/03/06 05:48:12;;;;;;;7.00;0.95;;;4.60;99.90;;;;;;5051365;28;20028;-70
2023/03/06 05:50:39;;;;;;;4.53;0.93;;;4.60;99.90;;;;;;5048408;28;20032;-67
2023/03/06 05:53:04;;;;;;;3.90;0.80;;;4.60;99.90;;;;;;5051158;28;20017;-70
2023/03/06 05:55:30;;;;;;;4.60;1.20;;;4.60;99.90;;;;;;5050622;28;20029;-69
2023/03/06 05:57:56;;;;;;;4.80;1.10;;;4.60;99.90;;;;;;5050612;28;20040;-69
2023/03/06 06:00:22;;;;;;;4.93;1.02;;;4.60;99.90;;;;;;5049815;28;20100;-69
2023/03/06 06:02:48;;;;;;;4.18;1.10;;;4.50;99.90;;;;;;5050566;28;20385;-69
2023/03/06 06:05:13;;;;;;;7.03;1.13;;;4.50;99.90;;;;;;5050808;28;20062;-70
2023/03/06 06:07:40;;;;;;;9.32;1.52;;;4.50;99.90;;;;;;5051896;28;20585;-68
2023/03/06 06:10:06;;;;;;;4.68;1.50;;;4.50;99.90;;;;;;5050984;28;20393;-69
2023/03/06 06:12:32;;;;;;;4.75;1.30;;;4.40;99.90;;;;;;5040009;28;20034;-69
2023/03/06 06:14:58;;;;;;;2.85;1.27;;;4.40;99.90;;;;;;5051673;28;20372;-69
2023/03/06 06:17:23;;;;;;;3.85;0.90;;;4.40;99.90;;;;;;5051425;28;20043;-69
2023/03/06 06:19:49;;;;;;;3.10;1.80;;;4.40;99.90;;;;;;5048837;28;20029;-69
2023/03/06 06:22:14;;;;;;;6.50;1.40;;;4.40;99.90;;;;;;5047496;28;20043;-68
2023/03/06 06:24:40;;;;;;;8.10;1.65;;;4.40;99.90;;;;;;5051496;28;20408;-70
2023/03/06 06:27:06;;;;;;;7.82;2.53;;;4.40;99.90;;;;;;5051139;28;20029;-70
2023/03/06 06:29:32;;;;;;;2.95;1.60;;;4.40;99.90;;;;;;5051191;28;20136;-69
2023/03/06 06:31:59;;;;;;;8.82;2.13;;;4.40;99.90;;;;;;5051774;28;20456;-68
2023/03/06 06:34:25;;;;;;;5.78;1.80;;;4.40;99.90;;;;;;5049042;28;20472;-68
2023/03/06 06:36:51;;;;;;;10.23;2.20;;;4.40;99.90;;;;;;5046590;28;20044;-68
2023/03/06 06:39:18;;;;;;;2.75;1.63;;;4.50;99.90;;;;;;5051626;28;20480;-69
2023/03/06 06:41:46;;;;;;;5.53;1.67;;;4.50;99.90;;;;;;5051604;28;20021;-69
2023/03/06 06:44:14;;;;;;;8.65;1.63;;;4.50;99.90;;;;;;5051404;28;20029;-69
2023/03/06 06:46:43;;;;;;;5.90;1.63;;;4.50;99.90;;;;;;5051413;28;20029;-68
2023/03/06 06:49:09;;;;;;;5.38;1.83;;;4.60;99.90;;;;;;5049712;28;20079;-68
2023/03/06 06:51:36;;;;;;;6.13;1.98;;;4.60;99.90;;;;;;5045522;28;20021;-69
2023/03/06 06:54:02;;;;;;;5.47;1.80;;;4.70;99.90;;;;;;5051091;28;20028;-70
2023/03/06 06:56:27;;;;;;;4.93;1.77;;;4.70;99.90;;;;;;5051201;28;20029;-69
2023/03/06 06:58:54;;;;;;;5.97;1.40;;;4.80;99.90;;;;;;5050716;28;20037;-69
2023/03/06 07:01:20;;;;;;;5.38;1.65;;;4.80;99.90;;;;;;5051205;28;20029;-69
2023/03/06 07:03:45;;;;;;;5.57;1.50;;;4.90;99.90;;;;;;5051243;28;20033;-70
2023/03/06 07:06:11;;;;;;;4.63;1.13;;;4.90;99.90;;;;;;5051374;28;20029;-68
2023/03/06 07:08:36;;;;;;;5.45;1.30;;;5.00;99.90;;;;;;5051051;28;20123;-67
2023/03/06 07:11:09;;;;;;;6.35;1.60;;;5.00;99.90;;;;;;5051317;28;20041;-69
2023/03/06 07:13:35;;;;;;;7.00;1.60;;;5.00;99.90;;;;;;5050632;28;20084;-69
2023/03/06 07:16:00;;;;;;;3.75;1.80;;;5.00;99.90;;;;;;5051480;28;20028;-68
2023/03/06 07:18:26;;;;;;;8.43;1.70;;;5.10;99.90;;;;;;5051798;28;20121;-70
2023/03/06 07:20:53;;;;;;;3.75;1.67;;;5.10;99.90;;;;;;5054811;28;20043;-70
2023/03/06 07:23:18;;;;;;;7.50;1.60;;;5.10;99.90;;;;;;5054899;28;20029;-68
2023/03/06 07:25:45;;;;;;;4.35;1.38;;;5.20;99.90;;;;;;5054369;28;20436;-68
2023/03/06 07:28:10;;;;;;;5.70;1.50;;;5.20;99.90;;;;;;5051464;28;20033;-69
2023/03/06 07:30:38;;;;;;;5.45;1.52;;;5.20;99.90;;;;;;5044595;28;20568;-70
2023/03/06 07:33:04;;;;;;;7.38;1.73;;;5.30;99.90;;;;;;5048151;28;20025;-70
2023/03/06 07:35:29;;;;;;;5.35;1.90;;;5.30;99.90;;;;;;5051027;28;20441;-68
2023/03/06 07:37:55;;;;;;;3.58;1.70;;;5.40;99.90;;;;;;5051695;28;20029;-69
2023/03/06 07:40:21;;;;;;;4.05;1.85;;;5.50;99.90;;;;;;5054618;28;20044;-69
2023/03/06 07:42:46;;;;;;;6.07;1.70;;;5.60;99.90;;;;;;5054866;28;20032;-68
2023/03/06 07:45:12;;;;;;;7.45;2.53;;;5.60;99.90;;;;;;5053993;28;20488;-69
2023/03/06 07:47:39;;;;;;;4.30;1.85;;;5.70;99.90;;;;;;5044125;28;20116;-69
2023/03/06 07:50:06;;;;;;;3.58;1.38;;;5.80;99.90;;;;;;5055037;28;20121;-68
2023/03/06 07:52:32;;;;;;;3.40;1.70;;;5.90;99.90;;;;;;5053712;28;20449;-70
2023/03/06 07:54:58;;;;;;;7.93;2.10;;;6.00;99.90;;;;;;5053607;28;20033;-68
2023/03/06 07:57:24;;;;;;;7.03;2.03;;;6.10;99.90;;;;;;5053484;28;20037;-69
2023/03/06 07:59:50;;;;;;;6.53;1.55;;;6.20;99.90;;;;;;5053609;28;20029;-70
2023/03/06 08:02:15;;;;;;;2.05;1.40;;;6.30;99.90;;;;;;5018474;28;20041;-69
2023/03/06 08:04:41;;;;;;;6.35;1.65;;;6.40;99.90;;;;;;5051608;28;20074;-68
2023/03/06 08:07:07;;;;;;;8.95;1.70;;;6.60;99.90;;;;;;5051832;28;20036;-68
2023/03/06 08:09:33;;;;;;;4.55;1.67;;;6.70;99.90;;;;;;5053010;28;20083;-70
2023/03/06 08:11:59;;;;;;;8.35;1.67;;;6.80;99.90;;;;;;5053780;28;20028;-69
2023/03/06 08:14:25;;;;;;;3.72;1.38;;;7.00;99.90;;;;;;5042257;28;20029;-69
2023/03/06 08:16:53;;;;;;;3.15;1.40;;;7.10;99.90;;;;;;5052924;28;20124;-69
2023/03/06 08:19:18;;;;;;;5.45;1.52;;;7.20;99.90;;;;;;5051630;28;20028;-68
2023/03/06 08:21:44;;;;;;;4.57;1.80;;;7.40;99.90;;;;;;5051715;28;20033;-68
2023/03/06 08:24:11;;;;;;;5.50;1.95;;;7.60;99.90;;;;;;5053773;28;20029;-70
2023/03/06 08:26:37;;;;;;;8.30;2.33;;;7.60;99.90;;;;;;5052931;28;20029;-69
2023/03/06 08:29:03;;;;;;;6.60;2.20;;;7.80;99.90;;;;;;5053177;28;20056;-70
2023/03/06 08:31:36;;;;;;;6.10;1.50;;;7.90;99.90;;;;;;5054129;28;20028;-70
2023/03/06 08:34:08;;;;;;;7.25;2.15;;;8.20;99.90;;;;;;5049097;28;20036;-70
2023/03/06 08:36:34;;;;;;;5.93;2.40;;;8.50;99.90;;;;;;5044201;28;20032;-70
2023/03/06 08:38:59;;;;;;;4.95;1.30;;;9.00;99.90;;;;;;5052168;28;20037;-69
2023/03/06 08:41:25;;;;;;;1.83;0.77;;;9.40;99.90;;;;;;5052002;28;20083;-68
2023/03/06 08:43:51;;;;;;;5.90;0.82;;;10.00;99.90;;;;;;5054081;28;20380;-69
2023/03/06 08:46:18;;;;;;;5.35;1.15;;;10.60;99.90;;;;;;5053992;28;20025;-70
2023/03/06 08:48:46;;;;;;;2.75;1.00;;;11.40;99.90;;;;;;5045027;28;20041;-69
2023/03/06 08:51:12;;;;;;;3.00;0.90;;;12.40;99.90;;;;;;5046708;28;20028;-68
2023/03/06 08:53:38;;;;;;;4.15;1.17;;;13.50;99.90;;;;;;5052828;28;20032;-68
2023/03/06 08:56:04;;;;;;;2.45;0.98;;;14.50;99.90;;;;;;5052433;28;20056;-70
2023/03/06 08:58:31;;;;;;;3.65;0.90;;;15.40;99.90;;;;;;5053704;28;20078;-69
2023/03/06 09:00:57;;;;;;;3.00;0.95;;;16.00;99.00;;;;;;5053603;28;20067;-69
2023/03/06 09:03:24;;;;;;;3.08;1.13;;;16.40;97.20;;;;;;5052705;28;20033;-69
2023/03/06 09:05:49;;;;;;;4.15;0.60;;;16.60;97.00;;;;;;5031649;28;20527;-68
2023/03/06 09:08:15;;;;;;;5.22;1.10;;;16.80;96.40;;;;;;5053110;28;20045;-70
2023/03/06 09:10:46;;;;;;;2.58;0.63;;;16.70;96.60;;;;;;5053010;28;20033;-69
2023/03/06 09:13:11;;;;;;;4.18;1.33;;;16.60;95.70;;;;;;5053584;28;20071;-69
2023/03/06 09:15:39;;;;;;;1.55;1.00;;;16.20;94.80;;;;;;5053325;28;20052;-69
2023/03/06 09:18:05;;;;;;;8.30;2.55;;;15.90;95.60;;;;;;5052563;28;20473;-69
2023/03/06 09:21:01;;;;;;;3.40;1.08;;;15.60;96.00;;;;;;5053378;28;20133;-70
2023/03/06 09:23:30;;;;;;;4.20;1.13;;;15.20;95.90;;;;;;5048645;28;20029;-67
2023/03/06 09:25:58;;;;;;;5.13;1.10;;;14.90;96.40;;;;;;5020609;28;20032;-68
2023/03/06 09:28:25;;;;;;;4.43;1.40;;;14.70;96.80;;;;;;5052450;28;20079;-68
2023/03/06 09:31:04;;;;;;;4.00;1.30;;;14.60;97.30;;;;;;5051811;28;20049;-69
2023/03/06 09:33:39;;;;;;;3.08;0.75;;;14.40;97.00;;;;;;5051588;28;20036;-69
2023/03/06 09:36:09;;;;;;;2.78;1.20;;;14.50;95.60;;;;;;5051929;28;20075;-68
2023/03/06 09:38:38;;;;;;;4.80;1.05;;;14.60;96.80;;;;;;5047727;28;20025;-68
2023/03/06 09:41:34;;;;;;;2.75;0.93;;;14.90;96.70;;;;;;5052752;28;20043;-69
2023/03/06 09:44:18;;;;;;;3.55;1.25;;;15.20;93.90;;;;;;5048632;28;20028;-67
2023/03/06 09:47:02;;;;;;;3.10;1.30;;;15.20;95.70;;;;;;5053149;28;20415;-69
2023/03/06 09:49:59;;;;;;;3.03;1.40;;;15.30;96.00;;;;;;5052821;28;20108;-69
2023/03/06 09:52:58;;;;;;;3.40;1.30;;;15.70;95.50;;;;;;5051996;28;20037;-68
2023/03/06 09:55:28;;;;;;;4.35;1.20;;;15.90;95.90;;;;;;5049146;28;20445;-68
2023/03/06 09:58:01;;;;;;;5.32;1.17;;;16.40;95.00;;;;;;5033211;28;20032;-69
2023/03/06 10:00:38;;;;;;;4.18;1.45;;;16.70;94.90;;;;;;5052149;28;20072;-69
2023/03/06 10:03:13;;;;;;;3.75;1.15;;;16.80;93.30;;;;;;5034969;28;20018;-68
2023/03/06 10:05:43;;;;;;;6.07;1.15;;;16.40;92.50;;;;;;5044078;28;20090;-67
2023/03/06 10:08:25;;;;;;;5.70;1.40;;;15.90;92.60;;;;;;5052015;28;20456;-68
2023/03/06 10:11:04;;;;;;;2.40;1.02;;;15.50;93.70;;;;;;5052333;28;20056;-68
2023/03/06 10:13:38;;;;;;;4.15;1.13;;;15.30;95.20;;;;;;5052359;28;20017;-69
2023/03/06 10:16:21;;;;;;;1.92;1.20;;;15.20;94.20;;;;;;5052578;28;20079;-68
2023/03/06 10:18:46;;;;;;;2.55;0.90;;;15.30;94.60;;;;;;5050981;28;20032;-69
2023/03/06 10:21:25;;;;;;;3.80;1.55;;;15.80;95.20;;;;;;5049764;28;20436;-69
2023/03/06 10:23:55;;;;;;;2.13;0.77;;;16.50;95.80;;;;;;5047941;28;20013;-68
2023/03/06 10:26:23;;;;;;;2.55;1.23;;;16.80;93.30;;;;;;5051881;28;20094;-69
2023/03/06 10:29:13;;;;;;;3.95;1.70;;;16.70;93.70;;;;;;5052339;28;20056;-68
2023/03/06 10:31:43;;;;;;;2.40;1.15;;;16.30;92.90;;;;;;5039718;28;20021;-69
2023/03/06 10:34:27;;;;;;;3.67;0.80;;;15.90;93.90;;;;;;5052094;28;20013;-68
2023/03/06 10:36:53;;;;;;;4.43;0.95;;;15.70;93.70;;;;;;5052135;28;20040;-69
2023/03/06 10:39:21;;;;;;;3.53;1.08;;;15.10;93.50;;;;;;5052220;28;20381;-68
2023/03/06 10:41:48;;;;;;;3.30;0.93;;;14.50;94.60;;;;;;5049864;28;20029;-69
2023/03/06 10:44:13;;;;;;;5.55;1.38;;;13.90;95.00;;;;;;5052091;28;20025;-68
2023/03/06 10:46:45;;;;;;;4.43;0.90;;;13.40;95.40;;;;;;5052406;28;20483;-69
2023/03/06 10:49:25;;;;;;;2.83;0.90;;;12.90;96.20;;;;;;5052213;28;20040;-68
2023/03/06 10:52:08;;;;;;;7.22;1.15;;;12.10;97.00;;;;;;5055201;28;20504;-68
2023/03/06 10:54:36;;;;;;;6.65;1.98;;;11.50;98.30;;;;;;5054370;28;20115;-67
2023/03/06 10:57:26;;;;;;;2.95;1.30;;;11.10;98.60;;;;;;5055969;28;20059;-68
2023/03/06 10:59:57;;;;;;;1.70;1.38;;;10.50;99.90;;;;;;5056167;28;20029;-68
2023/03/06 11:02:39;;;;;;;4.83;1.50;;;10.20;99.90;;;;;;5054230;28;20029;-68
2023/03/06 11:05:16;;;;;;;4.50;1.08;;;10.00;99.90;;;;;;5037920;28;20288;-69
2023/03/06 11:07:54;;;;;;;2.97;1.38;;;10.00;99.90;;;;;;5055912;28;20044;-68
2023/03/06 11:10:19;;;;;;;3.65;1.50;;;10.00;99.90;;;;;;5055698;28;20412;-69
2023/03/06 11:12:58;;;;;;;2.92;1.10;;;10.20;99.90;;;;;;5055998;28;20026;-69
2023/03/06 11:15:26;;;;;;;3.92;1.23;;;10.30;99.90;;;;;;5037152;28;20116;-67
2023/03/06 11:18:06;;;;;;;3.10;1.02;;;10.20;99.90;;;;;;5055830;28;20036;-70
2023/03/06 11:20:44;;;;;;;6.00;1.55;;;10.10;99.90;;;;;;5054050;28;20057;-70
2023/03/06 11:23:32;;;;;;;3.10;1.20;;;9.80;99.90;;;;;;5055593;28;20525;-70
2023/03/06 11:26:15;;;;;;;4.85;1.63;;;9.60;99.90;;;;;;5053586;28;20039;-69
2023/03/06 11:29:18;;;;;;;3.63;1.35;;;9.30;99.90;;;;;;5054886;28;20430;-68
2023/03/06 11:32:08;;;;;;;3.67;1.15;;;9.00;99.90;;;;;;5055733;28;20465;-68
2023/03/06 11:34:59;;;;;;;3.13;1.50;;;8.80;99.90;;;;;;5055653;28;20043;-69
2023/03/06 11:37:46;;;;;;;4.95;2.22;;;8.90;99.90;;;;;;5055543;28;20067;-68
2023/03/06 11:40:27;;;;;;;5.65;3.17;;;9.10;99.90;;;;;;5054898;28;20078;-69
2023/03/06 11:43:14;;;;;;;5.15;2.60;;;9.30;99.90;;;;;;5055201;28;20096;-68
2023/03/06 11:45:44;;;;;;;5.43;2.65;;;9.70;99.90;;;;;;5054945;28;20025;-70
2023/03/06 11:48:12;;;;;;;5.05;2.20;;;10.20;99.90;;;;;;5055143;28;20072;-70
2023/03/06 11:50:52;;;;;;;6.30;2.80;;;10.80;99.90;;;;;;5045529;28;20705;-69
2023/03/06 11:53:21;;;;;;;9.82;3.20;;;11.30;99.90;;;;;;5054005;28;20025;-69
2023/03/06 11:56:06;;;;;;;8.88;3.58;;;11.90;99.90;;;;;;5054887;28;20108;-69
2023/03/06 11:58:55;;;;;;;7.97;3.35;;;12.40;99.90;;;;;;5054554;28;20112;-69
2023/03/06 12:01:27;;;;;;;9.98;4.30;;;12.80;99.90;;;;;;5055136;28;20048;-68
2023/03/06 12:04:21;;;;;;;7.80;3.50;;;13.00;99.90;;;;;;5053874;28;20033;-68
2023/03/06 12:07:01;;;;;;;11.70;4.40;;;13.20;99.90;;;;;;5052577;28;20049;-69
2023/03/06 12:09:26;;;;;;;10.07;3.60;;;13.30;99.90;;;;;;5054451;28;20033;-69
2023/03/06 12:12:24;;;;;;;8.88;4.35;;;13.50;99.90;;;;;;5054745;28;20036;-70
2023/03/06 12:15:36;;;;;;;13.70;5.20;;;13.30;99.90;;;;;;5054952;28;20032;-69
2023/03/06 12:18:22;;;;;;;10.80;4.03;;;13.10;99.90;;;;;;4973578;28;20031;-68
2023/03/06 12:20:54;;;;;;;7.72;4.00;;;12.50;99.90;;;;;;4973952;28;20035;-69
2023/03/06 12:23:41;;;;;;;7.20;3.78;;;12.20;99.90;;;;;;5030651;28;20119;-68
2023/03/06 12:26:36;;;;;;;7.63;3.50;;;12.20;99.90;;;;;;5054212;28;20029;-68
2023/03/06 12:29:10;;;;;;;8.63;3.67;;;12.00;99.90;;;;;;5054130;28;20139;-69
2023/03/06 12:31:55;;;;;;;9.60;4.30;;;12.00;99.90;;;;;;5054050;28;20028;-68
2023/03/06 12:34:42;;;;;;;11.88;4.28;;;11.90;99.90;;;;;;5054194;28;20041;-69
2023/03/06 12:37:41;;;;;;;13.07;5.65;;;12.00;99.90;;;;;;5054429;28;20021;-69
2023/03/06 12:40:34;;;;;;;16.48;7.10;;;12.10;99.90;;;;;;5054011;28;20040;-69
2023/03/06 12:43:19;;;;;;;11.75;4.05;;;11.80;99.90;;;;;;5053022;28;20029;-68
2023/03/06 12:45:45;;;;;;;18.13;7.35;;;11.60;99.90;;;;;;5050754;28;20024;-68
2023/03/06 12:48:21;;;;;;;11.90;5.07;;;11.50;99.90;;;;;;5053441;28;20041;-69
2023/03/06 12:50:47;;;;;;;7.68;3.70;;;11.30;99.90;;;;;;5053255;28;20033;-68
2023/03/06 12:53:26;;;;;;;15.50;5.82;;;11.10;99.90;;;;;;5053744;28;20028;-68
2023/03/06 12:55:53;;;;;;;9.18;4.35;;;11.00;99.90;;;;;;5053813;28;20088;-68
2023/03/06 12:58:28;;;;;;;13.35;6.13;;;11.00;99.90;;;;;;5053890;28;20059;-69
2023/03/06 13:01:04;;;;;;;12.23;4.32;;;10.90;99.90;;;;;;5051533;28;20032;-68
2023/03/06 13:04:24;;;;;;;10.40;4.75;;;10.80;99.90;;;;;;5053110;28;20036;-69
2023/03/06 13:06:58;;;;;;;15.93;5.72;;;10.80;99.90;;;;;;5054027;28;20420;-67